createdAt,value
2023-05-25T00:02:10.699Z,98999.55
2023-05-25T00:04:38.657Z,99004.82
2023-05-25T00:07:06.386Z,99005.19
2023-05-25T00:09:34.936Z,99005.10
2023-05-25T00:12:03.041Z,99003.04
2023-05-25T00:14:31.314Z,99006.19
2023-05-25T00:16:58.997Z,99009.39
2023-05-25T00:19:26.428Z,99009.92
2023-05-25T00:21:54.910Z,99012.46
2023-05-25T00:24:22.357Z,99013.27
2023-05-25T00:26:49.939Z,99013.91
2023-05-25T00:29:17.694Z,99015.39
2023-05-25T00:31:45.616Z,99015.23
2023-05-25T00:34:13.217Z,99017.14
2023-05-25T00:36:40.676Z,99015.39
2023-05-25T00:39:08.271Z,99010.89
2023-05-25T00:41:41.585Z,99011.06
2023-05-25T00:44:09.090Z,99010.73
2023-05-25T00:46:38.348Z,99014.36
2023-05-25T00:49:05.832Z,99013.05
2023-05-25T00:51:33.996Z,99011.53
2023-05-25T00:54:01.503Z,99012.89
2023-05-25T00:56:31.210Z,99009.88
2023-05-25T00:59:01.423Z,99010.92
2023-05-25T01:01:29.285Z,99012.27
2023-05-25T01:03:58.020Z,99011.65
2023-05-25T01:06:27.264Z,99017.11
2023-05-25T01:09:00.441Z,99020.78
2023-05-25T01:11:29.016Z,99021.33
2023-05-25T01:13:56.577Z,99015.34
2023-05-25T01:16:26.197Z,99020.64
2023-05-25T01:18:54.457Z,99022.81
2023-05-25T01:21:27.118Z,99022.00
2023-05-25T01:24:09.410Z,99019.14
2023-05-25T01:26:40.205Z,99014.66
2023-05-25T01:29:07.834Z,99017.42
2023-05-25T01:31:36.387Z,99021.13
2023-05-25T01:34:06.023Z,99021.98
2023-05-25T01:36:33.695Z,99018.77
2023-05-25T01:39:01.165Z,99018.84
2023-05-25T01:41:28.680Z,99018.16
2023-05-25T01:43:56.265Z,99019.70
2023-05-25T01:46:33.206Z,99021.34
2023-05-25T01:49:37.967Z,99019.58
2023-05-25T01:52:34.818Z,99017.35
2023-05-25T01:55:13.194Z,99020.90
2023-05-25T01:57:42.740Z,99021.98
2023-05-25T02:00:11.199Z,99021.21
2023-05-25T02:02:43.115Z,99024.77
2023-05-25T02:05:11.768Z,99022.29
2023-05-25T02:07:39.411Z,99028.63
2023-05-25T02:10:07.629Z,99029.40
2023-05-25T02:12:35.252Z,99034.12
2023-05-25T02:15:04.549Z,99027.23
2023-05-25T02:17:32.339Z,99025.86
2023-05-25T02:20:00.192Z,99027.98
2023-05-25T02:22:27.812Z,99031.52
2023-05-25T02:24:55.354Z,99023.94
2023-05-25T02:27:23.255Z,99024.88
2023-05-25T02:29:50.885Z,99019.80
2023-05-25T02:32:18.498Z,99028.02
2023-05-25T02:34:47.204Z,99028.16
2023-05-25T02:37:14.666Z,99032.69
2023-05-25T02:39:42.690Z,99027.02
2023-05-25T02:42:10.353Z,99025.25
2023-05-25T02:44:37.919Z,99029.80
2023-05-25T02:47:06.934Z,99028.56
2023-05-25T02:49:34.967Z,99028.55
2023-05-25T02:52:02.630Z,99034.15
2023-05-25T02:54:30.116Z,99037.84
2023-05-25T02:56:58.597Z,99036.68
2023-05-25T02:59:26.250Z,99036.55
2023-05-25T03:01:53.886Z,99032.55
2023-05-25T03:04:22.263Z,99037.71
2023-05-25T03:06:49.824Z,99037.09
2023-05-25T03:09:19.256Z,99036.98
2023-05-25T03:11:48.683Z,99038.45
2023-05-25T03:14:18.033Z,99042.16
2023-05-25T03:16:53.605Z,99043.78
2023-05-25T03:19:22.408Z,99048.70
2023-05-25T03:21:50.026Z,99050.54
2023-05-25T03:24:19.218Z,99049.89
2023-05-25T03:26:46.841Z,99050.41
2023-05-25T03:29:15.053Z,99049.23
2023-05-25T03:31:42.758Z,99046.67
2023-05-25T03:34:11.103Z,99049.89
2023-05-25T03:36:39.202Z,99049.77
2023-05-25T03:39:07.340Z,99051.58
2023-05-25T03:41:35.304Z,99049.23
2023-05-25T03:44:03.011Z,99051.05
2023-05-25T03:46:30.683Z,99052.23
2023-05-25T03:48:58.598Z,99053.20
2023-05-25T03:51:26.360Z,99049.52
2023-05-25T03:53:53.912Z,99053.98
2023-05-25T03:56:21.676Z,99056.45
2023-05-25T03:58:49.952Z,99058.59
2023-05-25T04:01:19.604Z,99058.19
2023-05-25T04:03:47.234Z,99052.58
2023-05-25T04:06:19.562Z,99049.91
2023-05-25T04:08:48.827Z,99052.20
2023-05-25T04:11:16.447Z,99054.80
2023-05-25T04:13:44.109Z,99052.60
2023-05-25T04:16:13.357Z,99052.50
2023-05-25T04:18:41.931Z,99057.11
2023-05-25T04:21:09.862Z,99053.23
2023-05-25T04:23:37.533Z,99055.38
2023-05-25T04:26:10.512Z,99062.31
2023-05-25T04:28:41.230Z,99063.89
2023-05-25T04:31:35.746Z,99061.95
2023-05-25T04:34:30.007Z,99065.12
2023-05-25T04:37:09.359Z,99066.95
2023-05-25T04:39:37.832Z,99067.75
2023-05-25T04:42:06.280Z,99073.25
2023-05-25T04:44:34.986Z,99069.45
2023-05-25T04:47:04.814Z,99068.22
2023-05-25T04:49:34.447Z,99065.10
2023-05-25T04:52:02.092Z,99069.63
2023-05-25T04:54:31.943Z,99073.55
2023-05-25T04:57:02.776Z,99075.83
2023-05-25T04:59:32.338Z,99071.02
2023-05-25T05:02:00.591Z,99074.31
2023-05-25T05:04:28.241Z,99072.67
2023-05-25T05:06:58.818Z,99068.44
2023-05-25T05:09:28.714Z,99067.55
2023-05-25T05:11:58.037Z,99064.44
2023-05-25T05:14:26.582Z,99070.04
2023-05-25T05:16:55.506Z,99072.45
2023-05-25T05:19:23.873Z,99074.91
2023-05-25T05:21:52.774Z,99079.60
2023-05-25T05:24:20.970Z,99080.27
2023-05-25T05:29:27.175Z,99079.65
2023-05-25T05:31:56.418Z,99074.30
2023-05-25T05:34:24.538Z,99075.50
2023-05-25T05:36:57.243Z,99079.44
2023-05-25T05:39:28.457Z,99077.80
2023-05-25T05:41:56.551Z,99078.29
2023-05-25T05:44:27.094Z,99082.52
2023-05-25T05:47:01.137Z,99083.09
2023-05-25T05:49:30.102Z,99082.96
2023-05-25T05:51:58.830Z,99082.73
2023-05-25T05:54:28.197Z,99084.98
2023-05-25T05:57:00.028Z,99077.31
2023-05-25T05:59:29.426Z,99078.00
2023-05-25T06:01:56.994Z,99075.77
2023-05-25T06:04:28.681Z,99073.27
2023-05-25T06:06:57.169Z,99078.13
2023-05-25T06:09:26.707Z,99077.75
2023-05-25T06:11:56.181Z,99079.98
2023-05-25T06:14:24.755Z,99079.52
2023-05-25T06:16:53.896Z,99075.72
2023-05-25T06:19:21.722Z,99072.05
2023-05-25T06:21:49.371Z,99068.17
2023-05-25T06:24:17.247Z,99071.02
2023-05-25T06:26:45.188Z,99072.35
2023-05-25T06:29:16.114Z,99071.36
2023-05-25T06:31:44.573Z,99071.39
2023-05-25T06:34:12.172Z,99075.34
2023-05-25T06:36:41.673Z,99076.23
2023-05-25T06:39:09.804Z,99076.88
2023-05-25T06:41:38.476Z,99077.82
2023-05-25T06:44:06.620Z,99077.29
2023-05-25T06:46:42.162Z,99083.75
2023-05-25T06:49:10.055Z,99083.27
2023-05-25T06:51:37.894Z,99082.06
2023-05-25T06:54:07.891Z,99080.92
2023-05-25T06:56:36.128Z,99083.93
2023-05-25T06:59:03.636Z,99083.11
2023-05-25T07:01:31.266Z,99087.15
2023-05-25T07:03:58.967Z,99087.70
2023-05-25T07:06:26.673Z,99090.87
2023-05-25T07:08:56.048Z,99092.27
2023-05-25T07:11:23.709Z,99090.80
2023-05-25T07:13:51.595Z,99092.73
2023-05-25T07:16:19.365Z,99094.58
2023-05-25T07:18:48.228Z,99100.16
2023-05-25T07:21:15.962Z,99101.08
2023-05-25T07:23:43.539Z,99099.44
2023-05-25T07:26:11.302Z,99100.77
2023-05-25T07:28:38.932Z,99098.07
2023-05-25T07:31:06.654Z,99091.27
2023-05-25T07:33:34.516Z,99091.89
2023-05-25T07:36:02.114Z,99089.81
2023-05-25T07:38:29.637Z,99091.69
2023-05-25T07:40:57.109Z,99087.27
2023-05-25T07:43:25.235Z,99083.47
2023-05-25T07:45:52.922Z,99082.76
2023-05-25T07:48:20.698Z,99085.55
2023-05-25T07:50:48.249Z,99087.02
2023-05-25T07:53:16.134Z,99085.11
2023-05-25T07:55:44.214Z,99090.25
2023-05-25T07:58:12.434Z,99091.26
2023-05-25T08:00:40.809Z,99089.61
2023-05-25T08:03:08.982Z,99090.30
2023-05-25T08:05:36.931Z,99086.52
2023-05-25T08:08:04.735Z,99085.11
2023-05-25T08:10:32.581Z,99085.94
2023-05-25T08:13:00.211Z,99085.47
2023-05-25T08:15:30.854Z,99090.28
2023-05-25T08:18:01.444Z,99088.21
2023-05-25T08:20:34.951Z,99090.43
2023-05-25T08:23:06.476Z,99087.45
2023-05-25T08:25:34.675Z,99087.15
2023-05-25T08:28:03.421Z,99085.69
2023-05-25T08:30:31.204Z,99085.92
2023-05-25T08:32:58.742Z,99083.84
2023-05-25T08:35:26.256Z,99081.62
2023-05-25T08:37:53.949Z,99087.70
2023-05-25T08:40:24.133Z,99085.22
2023-05-25T08:42:51.630Z,99081.87
2023-05-25T08:45:33.397Z,99080.17
2023-05-25T08:48:02.586Z,99076.61
2023-05-25T08:50:30.210Z,99078.98
2023-05-25T08:52:57.976Z,99079.80
2023-05-25T08:55:25.913Z,99079.17
2023-05-25T08:57:56.201Z,99075.83
2023-05-25T09:00:35.978Z,99079.46
2023-05-25T09:03:09.652Z,99077.91
2023-05-25T09:05:39.522Z,99076.17
2023-05-25T09:08:08.998Z,99079.23
2023-05-25T09:10:37.647Z,99073.52
2023-05-25T09:13:20.338Z,99070.86
2023-05-25T09:15:50.173Z,99072.73
2023-05-25T09:18:17.713Z,99068.88
2023-05-25T09:20:47.036Z,99069.07
2023-05-25T09:23:15.477Z,99070.13
2023-05-25T09:25:43.226Z,99067.00
2023-05-25T09:28:25.511Z,99063.67
2023-05-25T09:30:54.411Z,99063.11
2023-05-25T09:33:22.214Z,99063.17
2023-05-25T09:35:49.865Z,99061.12
2023-05-25T09:38:17.940Z,99059.95
2023-05-25T09:40:46.274Z,99063.71
2023-05-25T09:43:21.853Z,99055.70
2023-05-25T09:45:53.505Z,99055.73
2023-05-25T09:48:22.704Z,99056.39
2023-05-25T09:50:53.125Z,99057.31
2023-05-25T09:53:20.876Z,99046.80
2023-05-25T09:55:53.015Z,99049.19
2023-05-25T09:58:27.668Z,99048.84
2023-05-25T10:00:56.325Z,99047.59
2023-05-25T10:03:24.829Z,99044.98
2023-05-25T10:05:52.621Z,99043.02
2023-05-25T10:08:20.682Z,99038.11
2023-05-25T10:10:50.769Z,99031.35
2023-05-25T10:13:23.164Z,99033.97
2023-05-25T10:15:53.221Z,99030.86
2023-05-25T10:18:25.801Z,99024.98
2023-05-25T10:20:57.940Z,99023.95
2023-05-25T10:23:26.093Z,99016.20
2023-05-25T10:25:55.444Z,99020.06
2023-05-25T10:28:27.612Z,99016.41
2023-05-25T10:30:58.676Z,99012.16
2023-05-25T10:36:09.371Z,99015.91
2023-05-25T10:38:39.659Z,99017.90
2023-05-25T10:41:09.341Z,99025.38
2023-05-25T10:43:40.798Z,99033.14
2023-05-25T10:46:08.629Z,99033.92
2023-05-25T10:48:40.183Z,99040.15
2023-05-25T10:51:10.215Z,99038.41
2023-05-25T10:53:39.387Z,99029.14
2023-05-25T10:56:08.826Z,99027.32
2023-05-25T10:58:36.648Z,99025.48
2023-05-25T11:01:07.992Z,99022.16
2023-05-25T11:03:48.395Z,99016.99
2023-05-25T11:06:17.568Z,99009.67
2023-05-25T11:09:04.210Z,99003.13
2023-05-25T11:12:02.268Z,99003.56
2023-05-25T11:14:31.222Z,98996.04
2023-05-25T11:17:06.602Z,98992.27
2023-05-25T11:19:54.311Z,98986.98
2023-05-25T11:22:38.153Z,98978.28
2023-05-25T11:25:44.960Z,98979.02
2023-05-25T11:28:13.159Z,98977.16
2023-05-25T11:30:42.267Z,98971.31
2023-05-25T11:33:11.739Z,98971.02
2023-05-25T11:35:39.259Z,98969.05
2023-05-25T11:38:07.512Z,98963.89
2023-05-25T11:40:36.921Z,98961.09
2023-05-25T11:43:06.773Z,98958.91
2023-05-25T11:45:34.641Z,98955.72
2023-05-25T11:48:04.075Z,98956.09
2023-05-25T11:50:32.289Z,98952.40
2023-05-25T11:52:59.903Z,98948.09
2023-05-25T11:55:27.579Z,98947.11
2023-05-25T11:57:56.669Z,98949.06
2023-05-25T12:00:25.312Z,98947.47
2023-05-25T12:02:53.036Z,98954.02
2023-05-25T12:05:21.199Z,98957.69
2023-05-25T12:07:48.934Z,98956.84
2023-05-25T12:10:19.306Z,98952.30
2023-05-25T12:12:48.211Z,98951.98
2023-05-25T12:15:19.168Z,98950.11
2023-05-25T12:17:48.259Z,98949.10
2023-05-25T12:20:18.359Z,98952.40
2023-05-25T12:22:46.979Z,98953.48
2023-05-25T12:25:16.077Z,98952.25
2023-05-25T12:27:44.239Z,98949.19
2023-05-25T12:30:12.007Z,98951.54
2023-05-25T12:33:05.208Z,98942.04
2023-05-25T12:35:49.565Z,98943.48
2023-05-25T12:38:20.828Z,98938.96
2023-05-25T12:41:08.906Z,98938.44
2023-05-25T12:43:38.896Z,98939.62
2023-05-25T12:46:06.615Z,98931.28
2023-05-25T12:48:35.819Z,98929.75
2023-05-25T12:51:04.184Z,98931.34
2023-05-25T12:53:31.724Z,98930.39
2023-05-25T12:56:06.975Z,98928.23
2023-05-25T12:58:39.041Z,98927.73
2023-05-25T13:01:09.033Z,98925.64
2023-05-25T13:03:36.808Z,98926.89
2023-05-25T13:06:04.873Z,98920.58
2023-05-25T13:08:33.823Z,98925.29
2023-05-25T13:11:03.890Z,98917.27
2023-05-25T13:13:31.784Z,98917.67
2023-05-25T13:15:59.464Z,98911.39
2023-05-25T13:18:27.821Z,98911.48
2023-05-25T13:20:57.302Z,98909.70
2023-05-25T13:23:25.198Z,98908.92
2023-05-25T13:25:52.733Z,98904.41
2023-05-25T13:28:20.218Z,98895.23
2023-05-25T13:30:47.771Z,98895.31
2023-05-25T13:33:15.460Z,98893.39
2023-05-25T13:35:58.173Z,98895.10
2023-05-25T13:38:26.170Z,98898.73
2023-05-25T13:40:54.669Z,98894.92
2023-05-25T13:43:25.692Z,98891.94
2023-05-25T13:45:56.214Z,98893.71
2023-05-25T13:48:26.131Z,98889.84
2023-05-25T13:50:55.966Z,98892.48
2023-05-25T13:53:28.632Z,98892.16
2023-05-25T13:55:58.670Z,98885.84
2023-05-25T13:58:28.767Z,98889.20
2023-05-25T14:00:56.985Z,98891.61
2023-05-25T14:03:25.537Z,98887.52
2023-05-25T14:05:54.326Z,98888.28
2023-05-25T14:08:21.924Z,98891.27
2023-05-25T14:10:51.871Z,98884.76
2023-05-25T14:13:20.494Z,98886.67
2023-05-25T14:15:48.441Z,98887.43
2023-05-25T14:18:16.672Z,98889.16
2023-05-25T14:20:44.717Z,98882.90
2023-05-25T14:23:15.199Z,98882.66
2023-05-25T14:25:44.596Z,98880.72
2023-05-25T14:28:12.480Z,98878.89
2023-05-25T14:30:40.269Z,98884.84
2023-05-25T14:37:32.087Z,98888.29
2023-05-25T14:40:01.071Z,98889.22
2023-05-25T14:42:30.410Z,98896.27
2023-05-25T14:49:27.470Z,98898.67
2023-05-25T14:51:55.122Z,98900.79
2023-05-25T14:54:22.680Z,98899.39
2023-05-25T14:56:50.344Z,98906.81
2023-05-25T14:59:18.003Z,98905.48
2023-05-25T15:01:47.557Z,98903.75
2023-05-25T15:04:15.240Z,98903.75
2023-05-25T15:06:42.870Z,98903.19
2023-05-25T15:09:10.420Z,98905.17
2023-05-25T15:11:38.056Z,98907.24
2023-05-25T15:14:06.013Z,98911.23
2023-05-25T15:16:42.617Z,98912.35
2023-05-25T15:19:13.246Z,98914.95
2023-05-25T15:21:43.148Z,98911.55
2023-05-25T15:24:16.758Z,98912.95
2023-05-25T15:26:46.674Z,98916.50
2023-05-25T15:29:15.160Z,98917.23
2023-05-25T15:31:43.557Z,98917.84
2023-05-25T15:34:12.376Z,98921.73
2023-05-25T15:36:39.894Z,98921.05
2023-05-25T15:39:09.141Z,98919.36
2023-05-25T15:41:36.852Z,98923.95
2023-05-25T15:44:08.269Z,98922.48
2023-05-25T15:46:36.198Z,98923.08
2023-05-25T15:49:03.716Z,98916.52
2023-05-25T15:51:32.870Z,98919.77
2023-05-25T15:54:00.580Z,98923.47
2023-05-25T15:56:28.335Z,98924.17
2023-05-25T15:58:56.098Z,98926.80
2023-05-25T16:01:23.840Z,98927.08
2023-05-25T16:03:51.665Z,98930.94
2023-05-25T16:06:19.341Z,98934.50
2023-05-25T16:08:46.895Z,98935.59
2023-05-25T16:11:14.472Z,98930.71
2023-05-25T16:13:42.076Z,98930.35
2023-05-25T16:16:10.317Z,98929.38
2023-05-25T16:18:38.121Z,98929.45
2023-05-25T16:21:07.808Z,98927.28
2023-05-25T16:23:36.349Z,98925.78
2023-05-25T16:26:06.312Z,98926.42
2023-05-25T16:28:35.307Z,98930.34
2023-05-25T16:31:04.054Z,98930.38
2023-05-25T16:33:32.480Z,98935.59
2023-05-25T16:36:00.754Z,98933.58
2023-05-25T16:38:28.510Z,98934.36
2023-05-25T16:40:56.578Z,98933.42
2023-05-25T16:43:25.328Z,98934.94
2023-05-25T16:45:52.874Z,98932.42
2023-05-25T16:48:23.042Z,98934.98
2023-05-25T16:50:51.015Z,98942.02
2023-05-25T16:53:18.746Z,98943.43
2023-05-25T16:55:47.100Z,98941.36
2023-05-25T16:58:15.054Z,98944.95
2023-05-25T17:00:44.585Z,98945.98
2023-05-25T17:03:12.331Z,98946.23
2023-05-25T17:05:40.224Z,98940.02
2023-05-25T17:08:07.899Z,98943.77
2023-05-25T17:10:35.638Z,98947.39
2023-05-25T17:13:03.338Z,98946.77
2023-05-25T17:15:32.643Z,98947.09
2023-05-25T17:18:10.367Z,98948.89
2023-05-25T17:20:40.277Z,98956.31
2023-05-25T17:23:14.930Z,98960.67
2023-05-25T17:25:46.434Z,98959.56
2023-05-25T17:28:14.289Z,98964.20
2023-05-25T17:30:42.110Z,98961.77
2023-05-25T17:33:09.830Z,98968.20
2023-05-25T17:35:37.444Z,98969.89
2023-05-25T17:38:05.024Z,98970.81
2023-05-25T17:40:32.598Z,98969.12
2023-05-25T17:43:00.131Z,98973.84
2023-05-25T17:45:27.854Z,98974.74
2023-05-25T17:47:56.433Z,98975.87
2023-05-25T17:50:34.110Z,98976.38
2023-05-25T17:53:04.291Z,98976.21
2023-05-25T17:55:31.853Z,98979.75
2023-05-25T17:57:59.437Z,98980.29
2023-05-25T18:00:27.564Z,98981.27
2023-05-25T18:02:55.663Z,98984.24
2023-05-25T18:05:24.546Z,98982.67
2023-05-25T18:07:52.406Z,98981.52
2023-05-25T18:10:20.070Z,98979.82
2023-05-25T18:12:49.416Z,98981.66
2023-05-25T18:15:17.245Z,98982.25
2023-05-25T18:17:45.071Z,98985.99
2023-05-25T18:20:13.227Z,98990.64
2023-05-25T18:22:41.697Z,98989.39
2023-05-25T18:25:09.763Z,98985.83
2023-05-25T18:27:37.345Z,98985.20
2023-05-25T18:30:05.379Z,98991.80
2023-05-25T18:32:33.404Z,98991.13
2023-05-25T18:35:00.982Z,98993.73
2023-05-25T18:37:29.960Z,98998.58
2023-05-25T18:39:57.465Z,99002.30
2023-05-25T18:42:26.811Z,99006.96
2023-05-25T18:44:55.824Z,99011.77
2023-05-25T18:47:25.364Z,99013.77
2023-05-25T18:49:53.190Z,99016.55
2023-05-25T18:52:20.856Z,99013.54
2023-05-25T18:54:49.355Z,99021.30
2023-05-25T18:57:17.237Z,99018.42
2023-05-25T18:59:44.762Z,99024.35
2023-05-25T19:02:12.306Z,99022.27
2023-05-25T19:04:39.974Z,99025.55
2023-05-25T19:07:07.479Z,99026.96
2023-05-25T19:09:35.105Z,99025.67
2023-05-25T19:12:04.915Z,99028.22
2023-05-25T19:14:32.814Z,99028.89
2023-05-25T19:17:00.679Z,99031.58
2023-05-25T19:19:28.403Z,99033.10
2023-05-25T19:21:56.068Z,99035.02
2023-05-25T19:24:23.725Z,99034.13
2023-05-25T19:26:51.390Z,99033.69
2023-05-25T19:29:19.764Z,99036.54
2023-05-25T19:31:47.498Z,99034.10
2023-05-25T19:34:15.189Z,99034.71
2023-05-25T19:36:42.850Z,99031.88
2023-05-25T19:39:10.819Z,99032.30
2023-05-25T19:41:38.738Z,99035.13
2023-05-25T19:44:06.446Z,99034.69
2023-05-25T19:46:34.212Z,99035.02
2023-05-25T19:49:01.878Z,99032.38
2023-05-25T19:51:29.561Z,99036.36
2023-05-25T19:53:57.299Z,99037.46
2023-05-25T19:56:25.127Z,99039.39
2023-05-25T19:58:52.825Z,99041.27
2023-05-25T20:01:20.467Z,99036.55
2023-05-25T20:03:48.361Z,99037.89
2023-05-25T20:06:16.126Z,99036.14
2023-05-25T20:08:46.255Z,99040.18
2023-05-25T20:11:13.894Z,99038.64
2023-05-25T20:13:41.761Z,99043.09
2023-05-25T20:16:10.679Z,99040.89
2023-05-25T20:18:38.426Z,99045.43
2023-05-25T20:21:06.073Z,99046.63
2023-05-25T20:23:33.735Z,99046.98
2023-05-25T20:26:01.397Z,99049.10
2023-05-25T20:28:29.055Z,99054.95
2023-05-25T20:30:56.725Z,99049.55
2023-05-25T20:33:24.791Z,99044.65
2023-05-25T20:35:52.551Z,99041.92
2023-05-25T20:38:20.110Z,99040.69
2023-05-25T20:40:47.770Z,99038.11
2023-05-25T20:43:15.435Z,99041.24
2023-05-25T20:45:43.357Z,99041.19
2023-05-25T20:48:11.272Z,99047.23
2023-05-25T20:50:38.836Z,99045.09
2023-05-25T20:53:06.495Z,99046.00
2023-05-25T20:55:34.158Z,99048.67
2023-05-25T20:58:02.019Z,99045.82
2023-05-25T21:00:29.685Z,99047.08
2023-05-25T21:02:57.468Z,99044.30
2023-05-25T21:05:25.243Z,99045.16
2023-05-25T21:07:52.778Z,99051.23
2023-05-25T21:10:20.532Z,99056.20
2023-05-25T21:12:48.095Z,99052.51
2023-05-25T21:15:15.768Z,99056.30
2023-05-25T21:17:43.287Z,99052.17
2023-05-25T21:20:11.151Z,99050.77
2023-05-25T21:22:38.950Z,99054.80
2023-05-25T21:25:07.315Z,99049.88
2023-05-25T21:27:34.976Z,99053.02
2023-05-25T21:30:06.225Z,99054.53
2023-05-25T21:32:34.026Z,99062.14
2023-05-25T21:35:01.753Z,99080.23
2023-05-25T21:37:29.918Z,99085.38
2023-05-25T21:39:57.577Z,99082.34
2023-05-25T21:42:26.264Z,99084.27
2023-05-25T21:44:53.927Z,99086.59
2023-05-25T21:47:21.636Z,99088.88
2023-05-25T21:49:49.363Z,99091.17
2023-05-25T21:52:19.881Z,99088.33
2023-05-25T21:54:47.555Z,99088.48
2023-05-25T21:57:15.106Z,99084.38
2023-05-25T21:59:42.710Z,99087.28
2023-05-25T22:02:10.369Z,99084.67
2023-05-25T22:04:37.979Z,99085.59
2023-05-25T22:07:05.639Z,99089.73
2023-05-25T22:09:33.308Z,99082.73
2023-05-25T22:12:02.336Z,99083.91
2023-05-25T22:14:29.963Z,99081.52
2023-05-25T22:16:57.680Z,99083.26
2023-05-25T22:19:25.411Z,99088.09
2023-05-25T22:21:53.753Z,99084.13
2023-05-25T22:24:21.432Z,99085.64
2023-05-25T22:26:49.077Z,99089.02
2023-05-25T22:29:16.636Z,99091.70
2023-05-25T22:31:44.199Z,99083.19
2023-05-25T22:34:11.864Z,99085.96
2023-05-25T22:36:39.519Z,99084.63
2023-05-25T22:39:07.074Z,99085.11
2023-05-25T22:41:34.755Z,99083.76
2023-05-25T22:44:02.397Z,99080.98
2023-05-25T22:46:29.889Z,99086.98
2023-05-25T22:48:57.617Z,99084.64
2023-05-25T22:51:25.288Z,99087.53
2023-05-25T22:53:53.051Z,99085.34
2023-05-25T22:56:21.325Z,99084.09
2023-05-25T22:58:48.974Z,99085.04
2023-05-25T23:01:16.670Z,99087.27
2023-05-25T23:03:44.385Z,99083.45
2023-05-25T23:06:12.165Z,99084.33
2023-05-25T23:08:39.845Z,99080.66
2023-05-25T23:11:07.380Z,99077.34
2023-05-25T23:13:36.064Z,99077.75
2023-05-25T23:16:04.050Z,99075.77
2023-05-25T23:18:31.715Z,99072.75
2023-05-25T23:20:59.263Z,99074.34
2023-05-25T23:23:26.742Z,99074.02
2023-05-25T23:25:54.272Z,99070.59
2023-05-25T23:28:21.990Z,99070.36
2023-05-25T23:30:49.694Z,99070.90
2023-05-25T23:33:18.707Z,99069.19
2023-05-25T23:35:46.930Z,99068.27
2023-05-25T23:38:15.242Z,99066.39
2023-05-25T23:40:42.806Z,99064.79
2023-05-25T23:43:10.462Z,99068.86
2023-05-25T23:45:38.142Z,99069.86
2023-05-25T23:48:06.138Z,99067.58
2023-05-25T23:50:35.179Z,99070.84
2023-05-25T23:53:03.093Z,99069.25
2023-05-25T23:55:30.913Z,99073.06
2023-05-25T23:57:58.477Z,99068.23
